Terminal Aerodrome Forecast
Issued by NWS

Home | Current Version | Previous Version | Text Only | Print | Product List | Glossary On
Versions: 1 2 3 4 5 6 7 8 9 10 11 12
000
FTUS45 KRIW 281100
TAFLND
TAF
KLND 281120Z 2812/2912 VRB05KT P6SM FEW150 SCT250
     FM282030 VRB05KT P6SM VCSH SCT120 BKN180
     FM282200 VRB10G20KT P6SM VCTS SCT090CB BKN140
     FM290300 VRB06KT P6SM VCSH SCT080 BKN120=

USA.gov is the U.S. government's official web portal to all federal, state and local government web resources and services.